Time;durP1;ratioP1;P1;durP2;ratioP2;P2;SDS_P1;SDS_P2;PMS_P1;PMS_P2;Temp;Humidity;BMP_temperature;BMP_pressure;BME280_temperature;BME280_humidity;BME280_pressure;Samples;Min_cycle;Max_cycle;Signal;HPM_P1;HPM_P2
2022/09/29 00:01:07;;;;;;;7.60;5.50;;;10.10;99.90;;;;;;5018811;28;20714;-73
2022/09/29 00:03:33;;;;;;;9.63;6.13;;;10.10;99.90;;;;;;5021540;28;20211;-71
2022/09/29 00:05:59;;;;;;;6.40;5.40;;;10.00;99.90;;;;;;5025549;28;20205;-72
2022/09/29 00:08:26;;;;;;;7.60;5.87;;;10.00;99.90;;;;;;5033517;28;20665;-73
2022/09/29 00:10:52;;;;;;;9.33;6.07;;;9.90;99.90;;;;;;5021307;28;20569;-73
2022/09/29 00:13:18;;;;;;;8.57;6.27;;;9.90;99.90;;;;;;5038913;28;20225;-70
2022/09/29 00:15:44;;;;;;;8.20;6.30;;;9.90;99.90;;;;;;5032932;28;20176;-70
2022/09/29 00:18:10;;;;;;;8.70;6.27;;;9.80;99.90;;;;;;5026819;28;20221;-68
2022/09/29 00:20:36;;;;;;;7.93;6.10;;;9.80;99.90;;;;;;5030536;28;20604;-70
2022/09/29 00:23:02;;;;;;;12.03;6.57;;;9.80;99.90;;;;;;5034537;28;20236;-72
2022/09/29 00:25:27;;;;;;;9.47;6.80;;;9.70;99.90;;;;;;5033425;28;20212;-71
2022/09/29 00:27:53;;;;;;;9.47;6.67;;;9.70;99.90;;;;;;5022359;28;20181;-72
2022/09/29 00:30:19;;;;;;;10.00;7.13;;;9.80;99.90;;;;;;5030956;28;20216;-75
2022/09/29 00:32:45;;;;;;;10.00;6.87;;;9.80;99.90;;;;;;5031396;28;20258;-75
2022/09/29 00:35:10;;;;;;;8.33;6.17;;;9.90;99.90;;;;;;5026590;28;20240;-75
2022/09/29 00:37:36;;;;;;;11.07;6.20;;;10.00;99.90;;;;;;5027995;28;20254;-76
2022/09/29 00:40:03;;;;;;;10.50;6.73;;;10.00;99.90;;;;;;5036153;28;20204;-78
2022/09/29 00:42:30;;;;;;;8.77;6.03;;;10.00;99.90;;;;;;5039761;28;20282;-75
2022/09/29 00:45:16;;;;;;;8.40;6.27;;;10.00;99.90;;;;;;5022183;28;20231;-71
2022/09/29 00:47:45;;;;;;;7.90;6.10;;;10.00;99.90;;;;;;5032041;28;20294;-71
2022/09/29 00:50:18;;;;;;;13.17;7.27;;;10.00;99.90;;;;;;5031145;28;20216;-72
2022/09/29 00:52:47;;;;;;;11.13;6.13;;;9.90;99.90;;;;;;5033033;28;20218;-72
2022/09/29 00:55:19;;;;;;;9.77;6.43;;;9.90;99.90;;;;;;5026144;28;20563;-72
2022/09/29 00:57:51;;;;;;;10.03;6.77;;;9.80;99.90;;;;;;5047338;28;20210;-73
2022/09/29 01:00:16;;;;;;;7.33;5.83;;;9.90;99.90;;;;;;5029908;28;20220;-71
2022/09/29 01:02:58;;;;;;;8.53;6.30;;;9.90;99.90;;;;;;5035338;28;21230;-72
2022/09/29 01:05:42;;;;;;;9.20;7.10;;;9.90;99.90;;;;;;5023090;28;20207;-72
2022/09/29 01:08:22;;;;;;;7.90;5.87;;;9.90;99.90;;;;;;5034418;28;20247;-73
2022/09/29 01:10:49;;;;;;;8.57;6.87;;;9.90;99.90;;;;;;5030754;28;20224;-73
2022/09/29 01:13:16;;;;;;;10.37;6.57;;;9.90;99.90;;;;;;5038267;28;20186;-74
2022/09/29 01:15:42;;;;;;;10.37;7.90;;;9.90;99.90;;;;;;5038288;28;20176;-73
2022/09/29 01:18:07;;;;;;;8.93;6.73;;;9.90;99.90;;;;;;5027593;28;20227;-70
2022/09/29 01:20:40;;;;;;;9.00;6.97;;;9.90;99.90;;;;;;5024946;28;20775;-74
2022/09/29 01:23:20;;;;;;;9.70;7.40;;;9.90;99.90;;;;;;5026004;28;20267;-73
2022/09/29 01:26:36;;;;;;;11.57;7.47;;;9.90;99.90;;;;;;5026785;28;20215;-73
2022/09/29 01:29:23;;;;;;;9.60;6.97;;;9.90;99.90;;;;;;5023079;28;20224;-71
2022/09/29 01:32:10;;;;;;;11.83;6.83;;;9.90;99.90;;;;;;5044828;28;20215;-71
2022/09/29 01:34:49;;;;;;;9.37;6.60;;;9.90;99.90;;;;;;5037535;28;20236;-74
2022/09/29 01:37:42;;;;;;;11.43;7.80;;;9.90;99.90;;;;;;5033474;28;20245;-73
2022/09/29 01:40:14;;;;;;;10.43;7.07;;;9.80;99.90;;;;;;5041306;28;20726;-73
2022/09/29 01:42:59;;;;;;;10.70;7.57;;;9.80;99.90;;;;;;5040299;28;20192;-73
2022/09/29 01:45:43;;;;;;;11.63;8.00;;;9.90;99.90;;;;;;5030566;28;20570;-72
2022/09/29 01:48:21;;;;;;;11.40;7.30;;;9.90;99.90;;;;;;5043749;28;20197;-72
2022/09/29 01:50:51;;;;;;;11.80;7.60;;;9.90;99.90;;;;;;5033327;28;20370;-72
2022/09/29 01:53:21;;;;;;;12.47;7.13;;;9.90;99.90;;;;;;5032557;28;20210;-73
2022/09/29 01:55:52;;;;;;;10.77;7.87;;;9.90;99.90;;;;;;5043630;28;20218;-73
2022/09/29 01:58:31;;;;;;;12.60;7.00;;;9.90;99.90;;;;;;5033592;28;20191;-73
2022/09/29 02:01:01;;;;;;;10.70;6.93;;;9.90;99.90;;;;;;5039894;28;20212;-73
2022/09/29 02:03:34;;;;;;;8.80;6.80;;;9.90;99.90;;;;;;5032841;28;20204;-72
2022/09/29 02:06:19;;;;;;;10.27;6.90;;;9.90;99.90;;;;;;5030240;28;20267;-74
2022/09/29 02:08:50;;;;;;;10.67;7.40;;;9.90;99.90;;;;;;5040260;28;20216;-73
2022/09/29 02:11:17;;;;;;;10.17;6.87;;;9.90;99.90;;;;;;5041518;28;20208;-72
2022/09/29 02:13:51;;;;;;;10.53;7.70;;;9.90;99.90;;;;;;5043297;28;20208;-72
2022/09/29 02:16:22;;;;;;;10.53;7.13;;;9.90;99.90;;;;;;5031256;28;20171;-72
2022/09/29 02:18:53;;;;;;;10.07;7.33;;;9.90;99.90;;;;;;5030746;28;20288;-72
2022/09/29 02:21:21;;;;;;;9.80;7.70;;;10.00;99.90;;;;;;5034973;28;20211;-73
2022/09/29 02:23:47;;;;;;;10.47;7.30;;;10.00;99.90;;;;;;5034412;28;20287;-74
2022/09/29 02:26:13;;;;;;;10.70;8.00;;;9.90;99.90;;;;;;5039127;28;20254;-72
2022/09/29 02:28:40;;;;;;;9.50;7.33;;;9.90;99.90;;;;;;5023889;28;20205;-73
2022/09/29 02:31:07;;;;;;;12.67;7.57;;;9.90;99.90;;;;;;5049541;28;20812;-72
2022/09/29 02:33:32;;;;;;;11.77;7.37;;;9.90;99.90;;;;;;5052372;28;20199;-72
2022/09/29 02:36:16;;;;;;;11.40;8.07;;;9.80;99.90;;;;;;5036925;28;20212;-72
2022/09/29 02:38:43;;;;;;;11.10;7.70;;;9.80;99.90;;;;;;5027717;28;20200;-74
2022/09/29 02:41:29;;;;;;;11.87;8.43;;;9.80;99.90;;;;;;5035992;28;20263;-73
2022/09/29 02:44:01;;;;;;;10.30;7.73;;;9.80;99.90;;;;;;5027853;28;20725;-72
2022/09/29 02:46:54;;;;;;;8.40;6.83;;;9.80;99.90;;;;;;5033062;28;20219;-73
2022/09/29 02:49:38;;;;;;;10.60;7.83;;;9.80;99.90;;;;;;5026031;28;20621;-73
2022/09/29 02:52:43;;;;;;;9.30;7.50;;;9.80;99.90;;;;;;5038544;28;20220;-72
2022/09/29 02:55:19;;;;;;;10.57;7.63;;;9.80;99.90;;;;;;5018974;28;20228;-73
2022/09/29 02:57:47;;;;;;;12.63;8.70;;;9.70;99.90;;;;;;5040765;28;20279;-72
2022/09/29 03:00:15;;;;;;;10.87;7.83;;;9.80;99.90;;;;;;5043868;28;20321;-73
2022/09/29 03:02:43;;;;;;;9.80;7.30;;;9.80;99.90;;;;;;5041568;28;20230;-73
2022/09/29 03:05:17;;;;;;;11.80;7.87;;;9.80;99.90;;;;;;5033204;28;20224;-73
2022/09/29 03:07:43;;;;;;;9.53;7.47;;;9.80;99.90;;;;;;5026713;28;20203;-73
2022/09/29 03:10:10;;;;;;;14.03;8.67;;;9.80;99.90;;;;;;5035175;28;20189;-72
2022/09/29 03:12:36;;;;;;;11.37;8.57;;;9.70;99.90;;;;;;5039362;28;20272;-73
2022/09/29 03:15:03;;;;;;;11.90;9.77;;;9.80;99.90;;;;;;5040434;28;20232;-72
2022/09/29 03:17:29;;;;;;;12.90;9.47;;;9.80;99.90;;;;;;5040391;28;20633;-73
2022/09/29 03:19:54;;;;;;;11.03;9.10;;;9.80;99.90;;;;;;5039962;28;20208;-72
2022/09/29 03:22:20;;;;;;;15.07;9.70;;;9.80;99.90;;;;;;5037334;28;20201;-71
2022/09/29 03:24:45;;;;;;;12.47;9.50;;;9.90;99.90;;;;;;5042242;28;20657;-73
2022/09/29 03:27:11;;;;;;;14.93;10.37;;;9.90;99.90;;;;;;5032275;28;20223;-73
2022/09/29 03:29:37;;;;;;;10.90;9.07;;;9.90;99.90;;;;;;5041928;28;20299;-72
2022/09/29 03:32:04;;;;;;;12.73;9.10;;;9.80;99.90;;;;;;5043114;28;20203;-73
2022/09/29 03:34:30;;;;;;;12.03;9.77;;;9.80;99.90;;;;;;5035404;28;20171;-73
2022/09/29 03:36:56;;;;;;;11.73;8.60;;;9.70;99.90;;;;;;5051044;28;20530;-73
2022/09/29 03:39:23;;;;;;;13.47;9.30;;;9.70;99.90;;;;;;5034913;28;20200;-72
2022/09/29 03:41:49;;;;;;;9.73;8.30;;;9.70;99.90;;;;;;5049811;28;20287;-72
2022/09/29 03:44:15;;;;;;;14.10;9.03;;;9.70;99.90;;;;;;5036050;28;20761;-73
2022/09/29 03:46:40;;;;;;;14.00;9.93;;;9.70;99.90;;;;;;5037328;28;20253;-72
2022/09/29 03:49:08;;;;;;;13.43;9.37;;;9.80;99.90;;;;;;5034560;28;20214;-71
2022/09/29 03:51:33;;;;;;;11.97;9.37;;;9.80;99.90;;;;;;5027473;28;20674;-72
2022/09/29 03:53:59;;;;;;;13.50;10.10;;;9.80;99.90;;;;;;5033175;28;20201;-73
2022/09/29 03:56:24;;;;;;;12.70;9.93;;;9.70;99.90;;;;;;5040377;28;20199;-72
2022/09/29 03:58:50;;;;;;;11.80;9.40;;;9.70;99.90;;;;;;5034463;28;20253;-73
2022/09/29 04:01:15;;;;;;;11.90;9.20;;;9.70;99.90;;;;;;5037524;28;20629;-71
2022/09/29 04:03:41;;;;;;;14.23;10.90;;;9.70;99.90;;;;;;5039244;28;20175;-71
2022/09/29 04:06:07;;;;;;;15.80;10.00;;;9.70;99.90;;;;;;5046844;28;20212;-71
2022/09/29 04:08:35;;;;;;;12.13;9.57;;;9.70;99.90;;;;;;5046250;28;20195;-71
2022/09/29 04:11:01;;;;;;;14.90;10.20;;;9.70;99.90;;;;;;5030073;28;20212;-72
2022/09/29 04:13:26;;;;;;;12.47;9.70;;;9.70;99.90;;;;;;5035613;28;20535;-72
2022/09/29 04:15:56;;;;;;;15.20;10.63;;;9.80;99.90;;;;;;5039829;28;20222;-72
2022/09/29 04:18:21;;;;;;;16.43;9.70;;;9.80;99.90;;;;;;5038010;28;20204;-71
2022/09/29 04:20:47;;;;;;;13.37;10.07;;;9.70;99.90;;;;;;5033881;28;20652;-71
2022/09/29 04:23:13;;;;;;;14.80;10.77;;;9.70;99.90;;;;;;5036291;28;20207;-71
2022/09/29 04:25:38;;;;;;;14.73;10.10;;;9.80;99.90;;;;;;5038942;28;20215;-71
2022/09/29 04:28:04;;;;;;;15.07;10.77;;;9.80;99.90;;;;;;5047402;28;20176;-71
2022/09/29 04:30:29;;;;;;;14.00;10.63;;;9.80;99.90;;;;;;5033994;28;20239;-72
2022/09/29 04:32:55;;;;;;;16.93;10.97;;;9.80;99.90;;;;;;5029707;28;20646;-71
2022/09/29 04:35:20;;;;;;;14.50;10.77;;;9.90;99.90;;;;;;5038017;28;20628;-70
2022/09/29 04:37:46;;;;;;;15.00;10.73;;;9.90;99.90;;;;;;5030370;28;20222;-73
2022/09/29 04:40:11;;;;;;;14.67;11.00;;;9.80;99.90;;;;;;5048098;28;20546;-72
2022/09/29 04:42:37;;;;;;;15.37;11.23;;;9.90;99.90;;;;;;5031505;28;20229;-72
2022/09/29 04:45:03;;;;;;;20.00;11.90;;;9.90;99.90;;;;;;5025293;28;20335;-72
2022/09/29 04:47:28;;;;;;;14.03;10.63;;;9.90;99.90;;;;;;5038632;28;20206;-73
2022/09/29 04:49:54;;;;;;;15.87;11.40;;;9.80;99.90;;;;;;5027570;28;20702;-72
2022/09/29 04:52:19;;;;;;;16.53;12.17;;;9.90;99.90;;;;;;5039562;28;20176;-72
2022/09/29 04:54:45;;;;;;;16.63;11.00;;;9.80;99.90;;;;;;5028590;28;20204;-73
2022/09/29 04:57:10;;;;;;;15.23;11.20;;;9.90;99.90;;;;;;5030986;28;20205;-72
2022/09/29 04:59:36;;;;;;;17.07;11.13;;;9.90;99.90;;;;;;5030455;28;20215;-72
2022/09/29 05:02:02;;;;;;;17.03;12.00;;;9.90;99.90;;;;;;5064972;23;20220;-72
2022/09/29 05:04:27;;;;;;;17.67;11.63;;;9.90;99.90;;;;;;5034837;28;20184;-71
2022/09/29 05:06:53;;;;;;;16.87;11.57;;;9.90;99.90;;;;;;5052196;28;20206;-70
2022/09/29 05:09:18;;;;;;;18.10;11.60;;;9.90;99.90;;;;;;5051698;28;20278;-73
2022/09/29 05:11:44;;;;;;;17.43;11.57;;;10.00;99.90;;;;;;5053236;28;20265;-71
2022/09/29 05:14:10;;;;;;;15.67;11.20;;;9.90;99.90;;;;;;5062437;28;20674;-71
2022/09/29 05:16:35;;;;;;;15.17;11.20;;;9.90;99.90;;;;;;5057286;28;20219;-71
2022/09/29 05:19:01;;;;;;;16.37;11.27;;;9.90;99.90;;;;;;5062051;28;20249;-72
2022/09/29 05:21:27;;;;;;;15.83;11.80;;;9.90;99.90;;;;;;5063860;28;20746;-72
2022/09/29 05:23:52;;;;;;;18.60;11.40;;;9.90;99.90;;;;;;5058430;28;20262;-71
2022/09/29 05:26:18;;;;;;;16.73;11.67;;;9.90;99.90;;;;;;5057579;28;20226;-71
2022/09/29 05:28:45;;;;;;;18.70;12.40;;;9.90;99.90;;;;;;5054991;28;20648;-71
2022/09/29 05:31:11;;;;;;;20.57;11.40;;;9.90;99.90;;;;;;5062574;28;20203;-71
2022/09/29 05:33:37;;;;;;;19.10;11.30;;;10.00;99.90;;;;;;5042809;28;20337;-71
2022/09/29 05:36:11;;;;;;;18.33;12.03;;;10.00;99.90;;;;;;5060407;28;20290;-71
2022/09/29 05:38:37;;;;;;;17.83;12.13;;;10.00;99.90;;;;;;5056355;28;20218;-71
2022/09/29 05:41:04;;;;;;;17.33;12.30;;;10.00;99.90;;;;;;5059215;28;20251;-71
2022/09/29 05:43:30;;;;;;;18.13;11.53;;;10.00;99.90;;;;;;5055972;28;20176;-71
2022/09/29 05:46:03;;;;;;;16.43;12.10;;;10.00;99.90;;;;;;5038132;28;21160;-72
2022/09/29 05:48:29;;;;;;;19.30;11.93;;;9.90;99.90;;;;;;5044424;28;20202;-72
2022/09/29 05:50:59;;;;;;;20.93;13.43;;;9.90;99.90;;;;;;5056887;28;20704;-72
2022/09/29 05:53:25;;;;;;;17.83;11.63;;;10.00;99.90;;;;;;5053593;28;20195;-72
2022/09/29 05:55:51;;;;;;;17.23;11.10;;;10.10;99.90;;;;;;5038291;28;20242;-71
2022/09/29 05:58:17;;;;;;;18.43;11.33;;;10.10;99.90;;;;;;5063414;28;20206;-72
2022/09/29 06:00:43;;;;;;;17.93;11.70;;;10.10;99.90;;;;;;5055385;28;20226;-72
2022/09/29 06:03:08;;;;;;;19.40;11.47;;;10.10;99.90;;;;;;5055601;28;20588;-72
2022/09/29 06:05:37;;;;;;;16.53;12.13;;;10.10;99.90;;;;;;5052203;28;20519;-72
2022/09/29 06:08:04;;;;;;;18.47;11.80;;;10.10;99.90;;;;;;5058139;28;20211;-72
2022/09/29 06:10:30;;;;;;;16.37;11.40;;;10.10;99.90;;;;;;5055673;28;20187;-72
2022/09/29 06:12:55;;;;;;;19.37;11.87;;;10.10;99.90;;;;;;5057157;28;20245;-71
2022/09/29 06:15:21;;;;;;;18.97;11.93;;;10.10;99.90;;;;;;5059358;28;20198;-71
2022/09/29 06:17:53;;;;;;;19.40;11.13;;;10.20;99.90;;;;;;5038527;28;20212;-71
2022/09/29 06:20:18;;;;;;;17.07;11.33;;;10.20;99.90;;;;;;5057526;28;20239;-71
2022/09/29 06:22:44;;;;;;;16.50;11.70;;;10.20;99.90;;;;;;5058499;28;20631;-72
2022/09/29 06:25:10;;;;;;;17.23;11.97;;;10.30;99.90;;;;;;5057974;28;20198;-71
2022/09/29 06:27:35;;;;;;;17.60;12.00;;;10.30;99.90;;;;;;5059138;28;20246;-72
2022/09/29 06:30:01;;;;;;;17.17;11.83;;;10.40;99.90;;;;;;5044599;28;20301;-72
2022/09/29 06:32:26;;;;;;;18.10;12.40;;;10.40;99.90;;;;;;5058466;28;20215;-72
2022/09/29 06:37:38;;;;;;;16.83;11.37;;;10.30;99.90;;;;;;5053258;28;20700;-73
2022/09/29 06:40:07;;;;;;;18.10;12.07;;;10.40;99.90;;;;;;5064986;28;20525;-70
2022/09/29 06:42:33;;;;;;;16.63;11.87;;;10.50;99.90;;;;;;5041668;28;20207;-72
2022/09/29 06:44:59;;;;;;;17.70;12.13;;;10.40;99.90;;;;;;5053820;28;20709;-72
2022/09/29 06:47:24;;;;;;;17.07;10.47;;;10.40;99.90;;;;;;5040559;28;20285;-72
2022/09/29 06:49:50;;;;;;;15.70;10.80;;;10.50;99.90;;;;;;5038201;28;20219;-72
2022/09/29 06:52:16;;;;;;;20.33;11.83;;;10.50;99.90;;;;;;5055676;28;20191;-72
2022/09/29 06:54:41;;;;;;;18.00;11.90;;;10.60;99.90;;;;;;5052669;28;20216;-72
2022/09/29 06:57:08;;;;;;;19.07;11.37;;;10.40;99.90;;;;;;5063096;28;20255;-72
2022/09/29 06:59:34;;;;;;;15.20;10.73;;;10.50;99.90;;;;;;5055278;28;20196;-72
2022/09/29 07:01:59;;;;;;;20.53;11.67;;;10.50;99.90;;;;;;5056637;28;20219;-71
2022/09/29 07:04:25;;;;;;;15.20;11.00;;;10.50;99.90;;;;;;5040162;28;20175;-72
2022/09/29 07:06:51;;;;;;;21.60;12.30;;;10.50;99.90;;;;;;5052952;28;20705;-72
2022/09/29 07:09:17;;;;;;;17.10;11.43;;;10.40;99.90;;;;;;5061534;28;20198;-72
2022/09/29 07:11:46;;;;;;;15.03;10.30;;;10.30;99.90;;;;;;5051466;28;20247;-71
2022/09/29 07:14:15;;;;;;;16.63;11.63;;;10.40;99.90;;;;;;5044758;28;20276;-72
2022/09/29 07:16:41;;;;;;;17.50;12.33;;;10.40;99.90;;;;;;5056383;28;20698;-72
2022/09/29 07:19:07;;;;;;;19.40;12.33;;;10.30;99.90;;;;;;5035801;28;20179;-71
2022/09/29 07:21:33;;;;;;;18.40;12.50;;;10.20;99.90;;;;;;5053880;28;20225;-72
2022/09/29 07:23:58;;;;;;;17.97;11.63;;;10.20;99.90;;;;;;5057882;28;20218;-70
2022/09/29 07:26:24;;;;;;;19.47;12.10;;;10.20;99.90;;;;;;5058573;28;20724;-71
2022/09/29 07:28:50;;;;;;;20.07;12.30;;;10.20;99.90;;;;;;5052325;28;20215;-72
2022/09/29 07:31:18;;;;;;;16.40;11.97;;;10.30;99.90;;;;;;5042271;28;20194;-71
2022/09/29 07:33:45;;;;;;;19.63;12.63;;;10.30;99.90;;;;;;5055453;28;20168;-73
2022/09/29 07:36:13;;;;;;;24.27;14.20;;;10.40;99.90;;;;;;5053525;28;20371;-69
2022/09/29 07:38:38;;;;;;;21.43;13.13;;;10.40;99.90;;;;;;5036238;28;20250;-72
2022/09/29 07:41:07;;;;;;;18.10;12.77;;;10.50;99.90;;;;;;5057150;28;20235;-71
2022/09/29 07:43:32;;;;;;;16.57;12.40;;;10.60;99.90;;;;;;5053444;28;20702;-73
2022/09/29 07:46:01;;;;;;;21.13;14.27;;;10.70;99.90;;;;;;5052719;28;20183;-71
2022/09/29 07:48:28;;;;;;;22.50;13.80;;;10.70;99.90;;;;;;5059121;28;20227;-71
2022/09/29 07:51:03;;;;;;;24.50;14.80;;;10.70;99.90;;;;;;5054194;28;20291;-71
2022/09/29 07:53:29;;;;;;;22.50;14.20;;;10.60;99.90;;;;;;5054576;28;20206;-71
2022/09/29 07:55:55;;;;;;;19.13;12.87;;;10.50;99.90;;;;;;5054393;28;20694;-71
2022/09/29 07:58:20;;;;;;;20.93;14.03;;;10.50;99.90;;;;;;5060913;28;20238;-68
2022/09/29 08:00:53;;;;;;;20.23;13.70;;;10.50;99.90;;;;;;5053085;28;20616;-71
2022/09/29 08:03:18;;;;;;;22.07;13.27;;;10.70;99.90;;;;;;5054302;28;20256;-71
2022/09/29 08:05:44;;;;;;;21.77;13.63;;;10.70;99.90;;;;;;5038476;28;20212;-73
2022/09/29 08:08:11;;;;;;;22.77;15.47;;;10.70;99.90;;;;;;5055758;28;20230;-71
2022/09/29 08:10:36;;;;;;;23.87;15.30;;;10.60;99.90;;;;;;5054517;28;20299;-71
2022/09/29 08:13:01;;;;;;;20.63;13.20;;;10.70;99.90;;;;;;5037709;28;20202;-71
2022/09/29 08:15:27;;;;;;;22.33;14.00;;;10.80;99.90;;;;;;5041468;28;20214;-72
2022/09/29 08:17:54;;;;;;;19.83;13.93;;;11.00;99.90;;;;;;5052867;28;20226;-69
2022/09/29 08:20:21;;;;;;;19.10;13.23;;;11.00;99.90;;;;;;5050440;28;20693;-71
2022/09/29 08:22:47;;;;;;;21.27;14.23;;;11.10;99.90;;;;;;5056859;28;20628;-72
2022/09/29 08:25:13;;;;;;;22.93;14.00;;;11.00;99.90;;;;;;5056110;28;20179;-71
2022/09/29 08:27:39;;;;;;;21.93;13.87;;;11.10;99.90;;;;;;5053507;28;20259;-71
2022/09/29 08:30:05;;;;;;;19.70;12.93;;;11.40;99.90;;;;;;5055083;28;20298;-70
2022/09/29 08:32:30;;;;;;;22.33;14.07;;;11.50;99.90;;;;;;5055757;28;20219;-71
2022/09/29 08:34:56;;;;;;;21.63;14.00;;;11.50;99.90;;;;;;5035343;28;20242;-71
2022/09/29 08:37:22;;;;;;;19.03;13.60;;;11.60;99.90;;;;;;5050308;28;20249;-72
2022/09/29 08:39:47;;;;;;;20.40;14.03;;;11.60;99.90;;;;;;5038691;28;20234;-71
2022/09/29 08:42:43;;;;;;;21.27;13.67;;;11.80;99.90;;;;;;5061439;28;20309;-72
2022/09/29 08:45:15;;;;;;;20.50;13.57;;;11.80;99.90;;;;;;5065047;28;20211;-72
2022/09/29 08:47:47;;;;;;;18.87;13.43;;;11.80;99.90;;;;;;5062721;28;20604;-72
2022/09/29 08:50:30;;;;;;;17.83;13.07;;;11.80;99.90;;;;;;5059062;28;20211;-69
2022/09/29 08:53:18;;;;;;;15.97;11.87;;;11.90;99.90;;;;;;5054825;28;20215;-72
2022/09/29 08:55:51;;;;;;;18.10;11.93;;;12.10;99.90;;;;;;5058417;28;20709;-74
2022/09/29 08:58:17;;;;;;;17.10;11.70;;;12.30;99.90;;;;;;5056950;28;20683;-72
2022/09/29 09:01:01;;;;;;;15.90;11.07;;;12.50;99.90;;;;;;5041109;28;20208;-72
2022/09/29 09:03:34;;;;;;;16.57;11.93;;;12.60;99.90;;;;;;5053643;28;20211;-72
2022/09/29 09:06:20;;;;;;;15.73;11.93;;;12.80;99.90;;;;;;5053762;28;20203;-72
2022/09/29 09:08:49;;;;;;;13.75;11.00;;;12.90;99.90;;;;;;5055091;28;20235;-72
2022/09/29 09:11:52;;;;;;;22.00;11.65;;;13.00;99.90;;;;;;5054327;28;20286;-73
2022/09/29 09:14:29;;;;;;;15.13;11.85;;;13.00;99.90;;;;;;5049502;28;20214;-72
2022/09/29 09:17:25;;;;;;;20.38;11.00;;;13.10;99.90;;;;;;5059036;28;20223;-73
2022/09/29 09:20:30;;;;;;;16.40;11.27;;;13.20;99.90;;;;;;5029841;28;20218;-72
2022/09/29 09:22:58;;;;;;;13.38;10.70;;;13.40;99.90;;;;;;5065882;28;20603;-71
2022/09/29 09:25:34;;;;;;;14.80;10.90;;;13.50;99.90;;;;;;5054707;28;20167;-72
2022/09/29 09:28:03;;;;;;;15.30;10.98;;;13.40;99.90;;;;;;5053405;28;20278;-72
2022/09/29 09:30:35;;;;;;;13.70;10.20;;;13.50;99.90;;;;;;5056507;28;20253;-72
2022/09/29 09:33:06;;;;;;;15.95;9.82;;;13.50;99.90;;;;;;5037630;28;20289;-71
2022/09/29 09:35:38;;;;;;;15.77;10.73;;;13.70;99.90;;;;;;5039069;28;20702;-71
2022/09/29 09:38:51;;;;;;;13.18;10.27;;;13.70;99.90;;;;;;5051558;28;20702;-74
2022/09/29 09:41:21;;;;;;;13.13;9.00;;;13.70;99.90;;;;;;5038678;28;20207;-72
2022/09/29 09:43:50;;;;;;;13.20;9.93;;;13.80;99.90;;;;;;5061938;28;20219;-71
2022/09/29 09:46:30;;;;;;;13.00;8.82;;;13.70;99.90;;;;;;5061196;28;20218;-71
2022/09/29 09:49:21;;;;;;;10.98;8.85;;;13.60;99.90;;;;;;5064642;28;20195;-72
2022/09/29 09:52:03;;;;;;;11.07;8.77;;;13.90;99.90;;;;;;5061901;28;20246;-72
2022/09/29 09:54:31;;;;;;;10.88;8.00;;;14.30;99.90;;;;;;5045238;28;20614;-72
2022/09/29 09:57:30;;;;;;;13.27;8.05;;;14.30;99.90;;;;;;5067762;28;20215;-71
2022/09/29 10:00:19;;;;;;;9.93;8.57;;;14.40;99.90;;;;;;5057665;28;20319;-71
2022/09/29 10:02:46;;;;;;;12.52;7.13;;;14.60;99.90;;;;;;5056747;28;20264;-72
2022/09/29 10:05:14;;;;;;;11.68;7.32;;;14.90;99.90;;;;;;5040785;28;20290;-71
2022/09/29 10:07:40;;;;;;;8.95;7.53;;;15.00;99.90;;;;;;5058130;28;20204;-73
2022/09/29 10:10:20;;;;;;;9.52;7.25;;;15.10;99.90;;;;;;5058491;28;20186;-68
2022/09/29 10:12:54;;;;;;;9.52;6.78;;;14.90;99.90;;;;;;5056636;28;20298;-70
2022/09/29 10:15:24;;;;;;;10.13;6.68;;;15.00;99.90;;;;;;5057150;28;20209;-70
2022/09/29 10:18:01;;;;;;;7.90;6.53;;;15.30;99.90;;;;;;5049954;28;20630;-70
2022/09/29 10:20:32;;;;;;;10.85;6.22;;;15.60;99.90;;;;;;5059391;28;20207;-72
2022/09/29 10:23:25;;;;;;;9.38;6.60;;;15.10;99.90;;;;;;5059505;28;20214;-69
2022/09/29 10:26:16;;;;;;;6.75;5.95;;;15.30;99.90;;;;;;5057433;28;20207;-70
2022/09/29 10:28:46;;;;;;;8.23;5.57;;;15.60;99.90;;;;;;5061869;28;20556;-72
2022/09/29 10:31:17;;;;;;;6.53;5.22;;;15.50;99.90;;;;;;5066251;28;20279;-70
2022/09/29 10:33:50;;;;;;;6.47;4.22;;;15.30;99.90;;;;;;5059445;28;20172;-70
2022/09/29 10:36:20;;;;;;;4.32;3.90;;;15.20;99.90;;;;;;5053993;28;20202;-68
2022/09/29 10:38:49;;;;;;;5.57;4.13;;;15.00;99.90;;;;;;5050529;28;20215;-71
2022/09/29 10:41:15;;;;;;;4.82;4.28;;;15.30;99.90;;;;;;5059000;28;20697;-72
2022/09/29 10:43:43;;;;;;;6.93;3.97;;;15.40;99.90;;;;;;5049489;28;20269;-70
2022/09/29 10:46:36;;;;;;;5.30;4.30;;;15.40;99.90;;;;;;5065916;28;20194;-71
2022/09/29 10:49:17;;;;;;;4.72;3.33;;;15.60;99.90;;;;;;5052054;28;20220;-70
2022/09/29 10:52:06;;;;;;;6.57;4.40;;;15.60;99.90;;;;;;5052062;28;20251;-71
2022/09/29 10:54:35;;;;;;;4.95;4.40;;;15.20;99.90;;;;;;5055520;28;20226;-71
2022/09/29 10:57:12;;;;;;;4.85;4.13;;;15.10;99.90;;;;;;5062657;28;20226;-72
2022/09/29 10:59:46;;;;;;;5.95;4.32;;;15.00;99.90;;;;;;5041333;28;20202;-72
2022/09/29 11:02:22;;;;;;;4.85;4.35;;;15.00;99.90;;;;;;5059213;28;20253;-73
2022/09/29 11:04:48;;;;;;;3.83;3.47;;;15.00;99.90;;;;;;5060080;28;20294;-72
2022/09/29 11:07:14;;;;;;;4.97;4.20;;;14.90;99.90;;;;;;5058783;28;20171;-72
2022/09/29 11:09:42;;;;;;;7.97;4.28;;;14.70;99.90;;;;;;5061195;28;20188;-74
2022/09/29 11:12:30;;;;;;;7.72;4.07;;;14.60;99.90;;;;;;5053900;28;20219;-73
2022/09/29 11:14:57;;;;;;;5.70;4.13;;;14.60;99.90;;;;;;5060025;28;20211;-72
2022/09/29 11:17:29;;;;;;;4.03;3.63;;;14.70;99.90;;;;;;5042697;28;20677;-71
2022/09/29 11:20:01;;;;;;;4.78;3.53;;;14.80;99.90;;;;;;5051790;28;20698;-71
2022/09/29 11:22:31;;;;;;;4.68;3.90;;;14.90;99.90;;;;;;5057398;28;20286;-72
2022/09/29 11:25:35;;;;;;;4.57;3.63;;;14.80;99.90;;;;;;5050509;28;20182;-73
2022/09/29 11:28:31;;;;;;;5.93;3.47;;;14.80;99.90;;;;;;4972754;28;20209;-73
2022/09/29 11:31:11;;;;;;;5.45;4.13;;;14.70;99.90;;;;;;4979044;28;20221;-72
2022/09/29 11:34:04;;;;;;;4.35;3.95;;;14.50;99.90;;;;;;5040206;28;20272;-72
2022/09/29 11:36:54;;;;;;;5.72;3.00;;;14.40;99.90;;;;;;5054955;28;20222;-73
2022/09/29 11:39:28;;;;;;;3.47;2.88;;;14.30;99.90;;;;;;5060757;28;20198;-71
2022/09/29 11:42:18;;;;;;;3.60;2.42;;;14.30;99.90;;;;;;5055407;28;20713;-70
2022/09/29 11:45:00;;;;;;;3.40;1.70;;;14.30;99.90;;;;;;5055053;28;20203;-72
2022/09/29 11:47:48;;;;;;;2.20;1.90;;;14.30;99.90;;;;;;5058015;28;20254;-71
2022/09/29 11:50:26;;;;;;;2.90;2.50;;;14.20;99.90;;;;;;5057094;28;20199;-74
2022/09/29 11:53:13;;;;;;;3.10;2.75;;;14.30;99.90;;;;;;5053012;28;20234;-73
2022/09/29 11:56:07;;;;;;;2.63;2.25;;;14.40;99.90;;;;;;5058017;28;20213;-72
2022/09/29 11:58:53;;;;;;;2.22;1.83;;;14.50;99.90;;;;;;5059846;28;20214;-72
2022/09/29 12:01:48;;;;;;;3.53;3.08;;;14.50;99.90;;;;;;5055941;28;20704;-73
2022/09/29 12:04:33;;;;;;;3.42;2.60;;;14.50;99.90;;;;;;5043762;28;20210;-72
2022/09/29 12:07:31;;;;;;;3.30;2.60;;;14.50;99.90;;;;;;5057389;28;20171;-72
2022/09/29 12:10:22;;;;;;;3.85;3.10;;;14.60;99.90;;;;;;5059104;28;20230;-72
2022/09/29 12:13:26;;;;;;;2.65;2.20;;;14.60;99.90;;;;;;5058004;28;20639;-72
2022/09/29 12:15:55;;;;;;;2.80;2.30;;;14.70;99.90;;;;;;5056392;28;20580;-73
2022/09/29 12:18:39;;;;;;;3.97;2.42;;;14.90;99.90;;;;;;5044827;28;20341;-70
2022/09/29 12:21:08;;;;;;;5.20;2.53;;;14.90;99.90;;;;;;5052167;28;20265;-72
2022/09/29 12:23:36;;;;;;;2.90;2.60;;;14.90;99.90;;;;;;5056758;28;20573;-72
2022/09/29 12:26:28;;;;;;;4.25;2.70;;;15.00;99.90;;;;;;5054817;28;20207;-71
2022/09/29 12:28:59;;;;;;;3.33;2.70;;;15.00;99.90;;;;;;5047871;28;20208;-72
2022/09/29 12:31:36;;;;;;;4.10;2.50;;;15.00;99.90;;;;;;5058549;28;20187;-72
2022/09/29 12:34:15;;;;;;;2.90;2.42;;;15.10;99.90;;;;;;5055855;28;20199;-72
2022/09/29 12:37:02;;;;;;;4.68;3.47;;;15.10;99.90;;;;;;5054410;28;20217;-72
2022/09/29 12:39:47;;;;;;;3.40;2.63;;;15.00;99.90;;;;;;5059992;28;20607;-73
2022/09/29 12:42:39;;;;;;;2.80;2.40;;;15.00;99.90;;;;;;5045765;28;20260;-72
2022/09/29 12:45:13;;;;;;;2.80;2.30;;;14.80;99.90;;;;;;5034848;28;20208;-72
2022/09/29 12:47:56;;;;;;;2.80;2.10;;;14.90;99.90;;;;;;5053300;28;20260;-72
2022/09/29 12:50:30;;;;;;;2.75;2.15;;;14.70;99.90;;;;;;5051224;28;20582;-71
2022/09/29 12:53:21;;;;;;;4.15;2.58;;;14.70;99.90;;;;;;5052647;28;20211;-72
2022/09/29 12:55:49;;;;;;;3.33;2.40;;;14.50;99.90;;;;;;5039391;28;20219;-72
2022/09/29 12:58:44;;;;;;;2.60;2.30;;;14.50;99.90;;;;;;5061081;28;20223;-73
2022/09/29 13:01:35;;;;;;;3.33;2.67;;;14.60;99.90;;;;;;5053790;28;20219;-71
2022/09/29 13:04:18;;;;;;;3.70;2.40;;;14.60;99.90;;;;;;5041761;28;20208;-72
2022/09/29 13:06:56;;;;;;;2.58;2.10;;;14.60;99.90;;;;;;5039518;28;20200;-72
2022/09/29 13:09:59;;;;;;;3.60;2.42;;;14.70;99.90;;;;;;5054912;28;20199;-71